createdAt,value
2019-01-31T00:00:59.203Z,93406.59
2019-01-31T00:04:08.680Z,93420.59
2019-01-31T00:07:22.321Z,93412.72
2019-01-31T00:10:17.399Z,93422.00
2019-01-31T00:13:02.114Z,93416.92
2019-01-31T00:16:21.532Z,93417.52
2019-01-31T00:19:23.216Z,93416.32
2019-01-31T00:22:39.646Z,93431.80
2019-01-31T00:25:25.421Z,93442.70
2019-01-31T00:28:39.985Z,93448.39
2019-01-31T00:31:35.196Z,93451.59
2019-01-31T00:34:39.645Z,93454.61
2019-01-31T00:37:20.164Z,93450.12
2019-01-31T00:40:19.309Z,93449.59
2019-01-31T00:43:29.301Z,93449.33
2019-01-31T00:46:23.470Z,93448.30
2019-01-31T00:49:32.647Z,93451.69
2019-01-31T00:52:53.658Z,93458.30
2019-01-31T00:56:05.665Z,93462.20
2019-01-31T00:59:08.212Z,93462.39
2019-01-31T01:02:05.363Z,93465.89
2019-01-31T01:05:10.689Z,93463.80
2019-01-31T01:08:19.031Z,93449.72
2019-01-31T01:11:17.990Z,93447.23
2019-01-31T01:14:31.017Z,93451.73
2019-01-31T01:17:20.027Z,93446.94
2019-01-31T01:20:30.356Z,93442.55
2019-01-31T01:23:11.842Z,93448.33
2019-01-31T01:26:01.209Z,93438.15
2019-01-31T01:29:13.768Z,93444.73
2019-01-31T01:32:26.955Z,93440.55
2019-01-31T01:35:23.411Z,93433.34
2019-01-31T01:38:22.252Z,93444.45
2019-01-31T01:41:32.763Z,93439.16
2019-01-31T01:44:55.463Z,93439.52
2019-01-31T01:47:35.875Z,93439.83
2019-01-31T01:50:29.662Z,93436.77
2019-01-31T01:53:58.178Z,93439.13
2019-01-31T01:57:30.043Z,93434.23
2019-01-31T02:00:24.429Z,93437.31
2019-01-31T02:03:46.241Z,93442.98
2019-01-31T02:06:46.895Z,93443.94
2019-01-31T02:09:41.268Z,93440.65
2019-01-31T02:13:07.003Z,93444.68
2019-01-31T02:16:06.208Z,93449.75
2019-01-31T02:19:07.139Z,93458.80
2019-01-31T02:21:58.791Z,93451.91
2019-01-31T02:24:42.706Z,93449.02
2019-01-31T02:27:41.993Z,93445.27
2019-01-31T02:30:51.142Z,93450.45
2019-01-31T02:33:43.495Z,93461.86
2019-01-31T02:36:52.328Z,93452.59
2019-01-31T02:39:47.521Z,93452.85
2019-01-31T02:42:33.800Z,93454.44
2019-01-31T02:45:37.180Z,93458.80
2019-01-31T02:48:58.592Z,93457.23
2019-01-31T02:51:47.392Z,93459.98
2019-01-31T02:54:38.744Z,93452.20
2019-01-31T02:57:55.579Z,93451.62
2019-01-31T03:01:18.277Z,93448.49
2019-01-31T03:04:33.493Z,93435.66
2019-01-31T03:07:55.851Z,93435.84
2019-01-31T03:11:07.933Z,93436.64
2019-01-31T03:14:11.849Z,93433.44
2019-01-31T03:17:25.237Z,93430.68
2019-01-31T03:20:19.136Z,93432.22
2019-01-31T03:23:42.157Z,93438.28
2019-01-31T03:26:37.407Z,93437.47
2019-01-31T03:29:28.490Z,93434.50
2019-01-31T03:32:34.884Z,93439.59
2019-01-31T03:35:19.977Z,93438.52
2019-01-31T03:38:13.827Z,93441.94
2019-01-31T03:41:38.630Z,93443.16
2019-01-31T03:44:20.037Z,93442.14
2019-01-31T03:47:48.515Z,93444.89
2019-01-31T03:50:47.894Z,93446.92
2019-01-31T03:53:46.009Z,93453.02
2019-01-31T03:56:50.514Z,93455.72
2019-01-31T03:59:54.561Z,93442.88
2019-01-31T04:03:00.700Z,93434.49
2019-01-31T04:05:40.409Z,93432.26
2019-01-31T04:08:10.635Z,93423.98
2019-01-31T04:10:40.110Z,93417.38
2019-01-31T04:13:09.592Z,93420.09
2019-01-31T04:15:39.079Z,93416.92
2019-01-31T04:18:08.617Z,93406.94
2019-01-31T04:20:38.100Z,93411.36
2019-01-31T04:23:07.617Z,93409.56
2019-01-31T04:25:37.090Z,93407.68
2019-01-31T04:28:06.671Z,93410.70
2019-01-31T04:30:36.174Z,93410.90
2019-01-31T04:33:05.649Z,93411.74
2019-01-31T04:35:35.146Z,93416.32
2019-01-31T04:38:04.612Z,93422.31
2019-01-31T04:40:34.102Z,93415.55
2019-01-31T04:43:03.876Z,93414.45
2019-01-31T04:45:33.383Z,93414.14
2019-01-31T04:48:02.904Z,93408.37
2019-01-31T04:50:32.363Z,93405.97
2019-01-31T04:53:01.821Z,93398.68
2019-01-31T04:55:31.295Z,93406.96
2019-01-31T04:58:00.809Z,93402.49
2019-01-31T05:00:30.343Z,93401.38
2019-01-31T05:02:59.839Z,93402.08
2019-01-31T05:05:29.336Z,93404.59
2019-01-31T05:07:58.815Z,93408.98
2019-01-31T05:10:28.318Z,93409.88
2019-01-31T05:12:57.818Z,93415.87
2019-01-31T05:15:27.330Z,93418.47
2019-01-31T05:17:56.814Z,93425.55
2019-01-31T05:20:26.309Z,93424.96
2019-01-31T05:22:55.791Z,93428.16
2019-01-31T05:25:25.296Z,93416.97
2019-01-31T05:27:54.785Z,93428.45
2019-01-31T05:30:24.257Z,93436.86
2019-01-31T05:32:53.752Z,93435.84
2019-01-31T05:35:23.219Z,93441.45
2019-01-31T05:37:52.695Z,93448.55
2019-01-31T05:40:22.185Z,93453.14
2019-01-31T05:42:51.701Z,93444.63
2019-01-31T05:45:21.206Z,93442.14
2019-01-31T05:47:50.716Z,93440.92
2019-01-31T05:50:20.174Z,93440.53
2019-01-31T05:52:49.664Z,93444.35
2019-01-31T05:55:19.177Z,93446.13
2019-01-31T05:57:48.663Z,93454.31
2019-01-31T06:00:28.291Z,93455.53
2019-01-31T06:02:57.753Z,93459.83
2019-01-31T06:05:27.384Z,93458.72
2019-01-31T06:07:56.902Z,93454.13
2019-01-31T06:10:26.490Z,93454.93
2019-01-31T06:12:56.329Z,93454.25
2019-01-31T06:15:25.861Z,93463.13
2019-01-31T06:17:55.327Z,93464.84
2019-01-31T06:20:25.732Z,93455.13
2019-01-31T06:22:55.192Z,93459.22
2019-01-31T06:25:24.704Z,93460.82
2019-01-31T06:27:54.206Z,93461.23
2019-01-31T06:30:23.714Z,93455.73
2019-01-31T06:32:53.290Z,93460.44
2019-01-31T06:35:22.796Z,93468.13
2019-01-31T06:37:52.282Z,93483.21
2019-01-31T06:40:21.883Z,93479.63
2019-01-31T06:42:51.445Z,93482.52
2019-01-31T06:45:21.830Z,93481.40
2019-01-31T06:47:51.435Z,93492.30
2019-01-31T06:50:21.028Z,93489.52
2019-01-31T06:52:50.499Z,93484.59
2019-01-31T06:55:19.991Z,93491.81
2019-01-31T06:57:49.700Z,93495.09
2019-01-31T07:00:22.223Z,93501.40
2019-01-31T07:02:51.995Z,93493.88
2019-01-31T07:05:21.454Z,93490.06
2019-01-31T07:07:50.936Z,93493.30
2019-01-31T07:10:25.481Z,93490.75
2019-01-31T07:12:55.133Z,93495.30
2019-01-31T07:15:24.716Z,93502.88
2019-01-31T07:17:54.250Z,93505.86
2019-01-31T07:20:23.709Z,93510.30
2019-01-31T07:22:53.186Z,93515.40
2019-01-31T07:25:24.752Z,93520.09
2019-01-31T07:27:54.242Z,93517.09
2019-01-31T07:30:26.725Z,93511.50
2019-01-31T07:32:55.211Z,93506.80
2019-01-31T07:35:24.711Z,93498.09
2019-01-31T07:37:54.200Z,93495.91
2019-01-31T07:40:23.712Z,93506.39
2019-01-31T07:42:53.180Z,93510.31
2019-01-31T07:45:24.835Z,93515.00
2019-01-31T07:47:54.474Z,93527.97
2019-01-31T07:50:24.075Z,93516.49
2019-01-31T07:52:53.561Z,93505.98
2019-01-31T07:55:23.090Z,93509.08
2019-01-31T07:57:52.585Z,93509.38
2019-01-31T08:00:22.307Z,93503.08
2019-01-31T08:02:51.927Z,93492.63
2019-01-31T08:05:22.195Z,93501.26
2019-01-31T08:07:53.232Z,93495.23
2019-01-31T08:10:25.309Z,93489.95
2019-01-31T08:12:54.757Z,93496.28
2019-01-31T08:15:24.257Z,93489.88
2019-01-31T08:17:53.733Z,93496.45
2019-01-31T08:20:23.165Z,93494.05
2019-01-31T08:22:52.639Z,93492.47
2019-01-31T08:25:22.564Z,93488.06
2019-01-31T08:27:52.340Z,93485.39
2019-01-31T08:30:24.547Z,93484.42
2019-01-31T08:32:54.375Z,93486.09
2019-01-31T08:35:24.074Z,93484.72
2019-01-31T08:37:53.640Z,93494.05
2019-01-31T08:40:23.174Z,93496.50
2019-01-31T08:42:52.666Z,93496.69
2019-01-31T08:45:22.212Z,93506.18
2019-01-31T08:47:51.691Z,93507.58
2019-01-31T08:50:23.046Z,93501.91
2019-01-31T08:52:52.564Z,93497.27
2019-01-31T08:58:22.603Z,93499.70
2019-01-31T09:00:52.092Z,93496.53
2019-01-31T09:03:21.602Z,93498.13
2019-01-31T09:05:51.191Z,93501.63
2019-01-31T09:08:20.950Z,93494.50
2019-01-31T09:10:50.451Z,93498.64
2019-01-31T09:13:19.963Z,93497.70
2019-01-31T09:15:49.470Z,93490.45
2019-01-31T09:18:18.966Z,93495.62
2019-01-31T09:21:09.227Z,93496.16
2019-01-31T09:23:48.254Z,93500.59
2019-01-31T09:26:39.093Z,93498.47
2019-01-31T09:29:57.795Z,93506.13
2019-01-31T09:33:20.293Z,93497.92
2019-01-31T09:36:22.378Z,93501.42
2019-01-31T09:39:21.679Z,93498.94
2019-01-31T09:42:26.755Z,93491.60
2019-01-31T09:45:06.640Z,93489.02
2019-01-31T09:48:15.750Z,93491.81
2019-01-31T09:51:26.187Z,93493.83
2019-01-31T09:54:23.707Z,93493.55
2019-01-31T09:57:29.759Z,93490.02
2019-01-31T10:00:31.009Z,93491.00
2019-01-31T10:03:34.741Z,93478.49
2019-01-31T10:06:44.404Z,93478.05
2019-01-31T10:09:40.682Z,93472.69
2019-01-31T10:12:54.835Z,93466.85
2019-01-31T10:15:55.957Z,93469.75
2019-01-31T10:19:05.032Z,93462.23
2019-01-31T10:22:11.522Z,93462.37
2019-01-31T10:25:26.912Z,93465.19
2019-01-31T10:28:36.657Z,93460.49
2019-01-31T10:31:32.020Z,93466.92
2019-01-31T10:34:33.002Z,93468.56
2019-01-31T10:37:30.246Z,93460.16
2019-01-31T10:40:36.440Z,93456.55
2019-01-31T10:43:41.749Z,93453.80
2019-01-31T10:47:04.174Z,93461.13
2019-01-31T10:50:19.834Z,93456.13
2019-01-31T10:53:34.451Z,93450.70
2019-01-31T10:56:44.428Z,93440.53
2019-01-31T10:59:48.581Z,93446.95
2019-01-31T11:02:50.294Z,93452.52
2019-01-31T11:05:49.088Z,93457.56
2019-01-31T11:08:53.080Z,93452.09
2019-01-31T11:11:44.798Z,93450.76
2019-01-31T11:14:59.335Z,93460.52
2019-01-31T11:17:47.541Z,93452.35
2019-01-31T11:20:57.766Z,93454.64
2019-01-31T11:23:55.466Z,93452.24
2019-01-31T11:27:16.014Z,93446.40
2019-01-31T11:30:22.131Z,93448.53
2019-01-31T11:33:19.001Z,93451.25
2019-01-31T11:36:32.943Z,93449.48
2019-01-31T11:39:33.270Z,93443.97
2019-01-31T11:42:41.963Z,93434.53
2019-01-31T11:45:52.285Z,93436.38
2019-01-31T11:48:54.142Z,93441.84
2019-01-31T11:52:07.558Z,93439.01
2019-01-31T11:55:12.823Z,93448.45
2019-01-31T11:58:32.335Z,93445.52
2019-01-31T12:01:01.863Z,93444.25
2019-01-31T12:03:31.639Z,93437.05
2019-01-31T12:06:01.185Z,93439.66
2019-01-31T12:08:30.620Z,93439.45
2019-01-31T12:11:00.093Z,93431.87
2019-01-31T12:13:29.596Z,93430.95
2019-01-31T12:15:59.238Z,93429.16
2019-01-31T12:18:28.765Z,93421.38
2019-01-31T12:20:59.311Z,93421.23
2019-01-31T12:23:28.852Z,93422.87
2019-01-31T12:25:58.427Z,93430.67
2019-01-31T12:28:28.050Z,93431.63
2019-01-31T12:30:57.534Z,93428.06
2019-01-31T12:33:27.053Z,93426.28
2019-01-31T12:35:56.520Z,93429.03
2019-01-31T12:38:36.424Z,93426.75
2019-01-31T12:41:00.087Z,93431.65
2019-01-31T12:43:35.202Z,93431.36
2019-01-31T12:46:07.100Z,93428.74
2019-01-31T12:48:36.588Z,93428.81
2019-01-31T12:51:06.705Z,93427.19
2019-01-31T12:53:52.209Z,93429.41
2019-01-31T12:56:21.689Z,93428.03
2019-01-31T12:58:51.208Z,93424.21
2019-01-31T13:01:24.012Z,93424.07
2019-01-31T13:03:53.703Z,93428.35
2019-01-31T13:06:24.777Z,93428.47
2019-01-31T13:08:54.241Z,93423.02
2019-01-31T13:11:23.694Z,93433.19
2019-01-31T13:13:53.229Z,93433.19
2019-01-31T13:16:23.211Z,93432.67
2019-01-31T13:18:53.151Z,93435.39
2019-01-31T13:21:22.685Z,93437.86
2019-01-31T13:23:52.298Z,93443.89
2019-01-31T13:26:22.169Z,93443.41
2019-01-31T13:28:51.754Z,93441.84
2019-01-31T13:31:21.312Z,93443.34
2019-01-31T13:33:50.906Z,93436.61
2019-01-31T13:36:20.637Z,93432.55
2019-01-31T13:38:50.174Z,93432.33
2019-01-31T13:41:19.688Z,93437.72
2019-01-31T13:43:57.380Z,93439.14
2019-01-31T13:46:20.618Z,93438.42
2019-01-31T13:48:50.215Z,93441.33
2019-01-31T13:51:19.786Z,93442.68
2019-01-31T13:53:49.265Z,93451.84
2019-01-31T13:56:18.759Z,93454.75
2019-01-31T13:58:48.258Z,93451.03
2019-01-31T14:01:17.775Z,93456.77
2019-01-31T14:03:47.279Z,93457.72
2019-01-31T14:06:16.787Z,93457.80
2019-01-31T14:08:46.326Z,93459.45
2019-01-31T14:11:15.836Z,93457.64
2019-01-31T14:13:45.349Z,93457.14
2019-01-31T14:16:14.806Z,93457.80
2019-01-31T14:18:44.292Z,93455.41
2019-01-31T14:21:13.799Z,93459.64
2019-01-31T14:23:43.394Z,93464.99
2019-01-31T14:26:12.911Z,93464.38
2019-01-31T14:28:42.436Z,93463.02
2019-01-31T14:31:12.079Z,93466.41
2019-01-31T14:33:41.697Z,93468.97
2019-01-31T14:36:11.217Z,93467.58
2019-01-31T14:38:40.786Z,93461.55
2019-01-31T14:41:10.335Z,93472.41
2019-01-31T14:43:39.884Z,93472.11
2019-01-31T14:46:09.400Z,93480.92
2019-01-31T14:48:39.305Z,93482.66
2019-01-31T14:51:08.798Z,93484.76
2019-01-31T14:53:38.291Z,93495.48
2019-01-31T14:56:07.965Z,93486.73
2019-01-31T14:58:37.585Z,93492.28
2019-01-31T15:01:07.159Z,93499.98
2019-01-31T15:03:36.701Z,93504.48
2019-01-31T15:06:06.310Z,93503.20
2019-01-31T15:08:36.517Z,93509.77
2019-01-31T15:11:06.269Z,93508.83
2019-01-31T15:13:36.160Z,93510.64
2019-01-31T15:16:06.152Z,93513.54
2019-01-31T15:18:35.765Z,93523.50
2019-01-31T15:21:05.272Z,93541.61
2019-01-31T15:23:34.803Z,93560.66
2019-01-31T15:26:04.432Z,93567.09
2019-01-31T15:28:33.949Z,93592.38
2019-01-31T15:31:03.494Z,93592.84
2019-01-31T15:33:33.003Z,93604.86
2019-01-31T15:36:02.492Z,93612.09
2019-01-31T15:38:32.038Z,93614.41
2019-01-31T15:41:01.536Z,93620.62
2019-01-31T15:43:31.113Z,93615.98
2019-01-31T15:46:00.594Z,93628.46
2019-01-31T15:48:30.185Z,93637.91
2019-01-31T15:50:59.690Z,93642.27
2019-01-31T15:53:29.201Z,93642.83
2019-01-31T15:55:58.791Z,93654.11
2019-01-31T15:58:28.311Z,93667.84
2019-01-31T16:00:58.545Z,93668.30
2019-01-31T16:03:28.416Z,93666.08
2019-01-31T16:05:58.125Z,93681.45
2019-01-31T16:08:27.685Z,93668.88
2019-01-31T16:10:57.161Z,93683.13
2019-01-31T16:13:26.696Z,93683.62
2019-01-31T16:15:56.434Z,93691.27
2019-01-31T16:18:26.046Z,93690.16
2019-01-31T16:20:55.572Z,93695.16
2019-01-31T16:23:25.084Z,93686.94
2019-01-31T16:25:54.718Z,93694.23
2019-01-31T16:28:24.243Z,93699.66
2019-01-31T16:30:53.848Z,93697.56
2019-01-31T16:33:23.539Z,93705.83
2019-01-31T16:35:53.807Z,93704.23
2019-01-31T16:38:24.048Z,93711.87
2019-01-31T16:40:54.272Z,93715.53
2019-01-31T16:43:23.748Z,93719.52
2019-01-31T16:45:53.716Z,93723.84
2019-01-31T16:48:23.256Z,93718.98
2019-01-31T16:50:52.734Z,93731.77
2019-01-31T16:53:22.227Z,93726.81
2019-01-31T16:55:51.749Z,93723.05
2019-01-31T16:58:21.236Z,93729.89
2019-01-31T17:00:50.814Z,93726.63
2019-01-31T17:03:20.320Z,93732.93
2019-01-31T17:05:49.784Z,93736.37
2019-01-31T17:08:19.338Z,93742.99
2019-01-31T17:10:49.616Z,93740.63
2019-01-31T17:13:19.233Z,93737.50
2019-01-31T17:15:48.684Z,93743.41
2019-01-31T17:18:18.793Z,93751.45
2019-01-31T17:20:48.353Z,93758.61
2019-01-31T17:23:17.897Z,93749.80
2019-01-31T17:25:47.508Z,93756.41
2019-01-31T17:28:17.013Z,93757.52
2019-01-31T17:30:46.507Z,93759.16
2019-01-31T17:33:16.011Z,93762.23
2019-01-31T17:35:45.541Z,93764.01
2019-01-31T17:38:15.019Z,93772.02
2019-01-31T17:40:44.760Z,93768.68
2019-01-31T17:43:14.623Z,93774.46
2019-01-31T17:45:44.129Z,93778.30
2019-01-31T17:48:16.965Z,93784.02
2019-01-31T17:50:47.202Z,93789.58
2019-01-31T17:53:16.940Z,93790.66
2019-01-31T17:55:46.455Z,93790.63
2019-01-31T17:58:15.922Z,93798.86
2019-01-31T18:00:51.242Z,93801.64
2019-01-31T18:03:20.769Z,93798.17
2019-01-31T18:05:50.292Z,93802.59
2019-01-31T18:08:19.943Z,93804.08
2019-01-31T18:10:49.485Z,93808.72
2019-01-31T18:13:19.262Z,93812.30
2019-01-31T18:15:48.855Z,93821.77
2019-01-31T18:18:18.380Z,93822.77
2019-01-31T18:20:47.913Z,93821.47
2019-01-31T18:23:17.582Z,93834.55
2019-01-31T18:25:47.160Z,93840.73
2019-01-31T18:28:16.654Z,93840.61
2019-01-31T18:30:46.245Z,93837.89
2019-01-31T18:33:15.708Z,93836.38
2019-01-31T18:35:45.188Z,93843.80
2019-01-31T18:38:14.636Z,93848.90
2019-01-31T18:40:44.123Z,93849.64
2019-01-31T18:43:13.588Z,93851.80
2019-01-31T18:45:53.003Z,93858.17
2019-01-31T18:48:14.304Z,93843.83
2019-01-31T18:50:44.187Z,93853.38
2019-01-31T18:53:13.708Z,93859.66
2019-01-31T18:55:43.336Z,93867.85
2019-01-31T18:58:13.287Z,93873.36
2019-01-31T19:00:47.934Z,93874.26
2019-01-31T19:03:17.654Z,93874.69
2019-01-31T19:05:47.589Z,93878.77
2019-01-31T19:08:17.110Z,93880.02
2019-01-31T19:10:46.548Z,93882.05
2019-01-31T19:13:16.030Z,93884.28
2019-01-31T19:15:46.513Z,93882.98
2019-01-31T19:18:16.212Z,93885.21
2019-01-31T19:20:45.849Z,93884.22
2019-01-31T19:23:15.365Z,93892.23
2019-01-31T19:25:47.271Z,93894.16
2019-01-31T19:28:16.032Z,93894.34
2019-01-31T19:30:45.625Z,93889.70
2019-01-31T19:33:15.287Z,93890.19
2019-01-31T19:35:46.976Z,93903.00
2019-01-31T19:38:16.512Z,93906.41
2019-01-31T19:40:46.945Z,93912.80
2019-01-31T19:43:16.497Z,93914.34
2019-01-31T19:45:48.190Z,93926.16
2019-01-31T19:48:17.731Z,93928.45
2019-01-31T19:50:47.364Z,93933.15
2019-01-31T19:53:16.957Z,93937.59
2019-01-31T19:55:46.549Z,93941.27
2019-01-31T19:58:16.734Z,93940.64
2019-01-31T20:00:46.287Z,93937.38
2019-01-31T20:03:15.776Z,93949.06
2019-01-31T20:05:45.467Z,93945.61
2019-01-31T20:08:14.967Z,93944.05
2019-01-31T20:10:44.447Z,93945.66
2019-01-31T20:13:14.015Z,93938.62
2019-01-31T20:15:43.897Z,93948.75
2019-01-31T20:18:13.474Z,93952.05
2019-01-31T20:20:43.060Z,93950.80
2019-01-31T20:23:12.612Z,93961.36
2019-01-31T20:25:42.145Z,93963.73
2019-01-31T20:28:11.673Z,93977.41
2019-01-31T20:30:41.167Z,93975.48
2019-01-31T20:33:10.879Z,93981.66
2019-01-31T20:35:40.412Z,93988.17
2019-01-31T20:38:10.012Z,93984.34
2019-01-31T20:40:43.863Z,93992.44
2019-01-31T20:43:13.466Z,93997.39
2019-01-31T20:45:43.108Z,94003.67
2019-01-31T20:48:12.557Z,94004.13
2019-01-31T20:50:42.661Z,94003.67
2019-01-31T20:53:12.413Z,94011.73
2019-01-31T20:55:42.212Z,94013.97
2019-01-31T20:58:11.715Z,94016.61
2019-01-31T21:00:43.497Z,94010.36
2019-01-31T21:03:14.127Z,94012.36
2019-01-31T21:05:43.923Z,94018.36
2019-01-31T21:08:14.656Z,94023.30
2019-01-31T21:10:44.415Z,94033.57
2019-01-31T21:13:14.034Z,94035.67
2019-01-31T21:15:43.621Z,94043.29
2019-01-31T21:18:13.195Z,94045.22
2019-01-31T21:20:43.936Z,94050.41
2019-01-31T21:23:13.450Z,94050.83
2019-01-31T21:25:44.679Z,94059.81
2019-01-31T21:28:14.156Z,94068.48
2019-01-31T21:30:43.905Z,94075.19
2019-01-31T21:33:13.417Z,94080.10
2019-01-31T21:35:42.968Z,94082.06
2019-01-31T21:38:12.585Z,94090.84
2019-01-31T21:40:42.084Z,94102.52
2019-01-31T21:43:11.571Z,94095.54
2019-01-31T21:45:41.085Z,94103.01
2019-01-31T21:48:11.606Z,94110.80
2019-01-31T21:50:41.104Z,94113.67
2019-01-31T21:53:10.851Z,94120.80
2019-01-31T21:55:40.356Z,94123.88
2019-01-31T21:58:10.133Z,94125.67
2019-01-31T22:00:39.686Z,94121.92
2019-01-31T22:03:09.553Z,94127.81
2019-01-31T22:05:39.127Z,94121.81
2019-01-31T22:08:08.818Z,94132.66
2019-01-31T22:10:38.310Z,94134.27
2019-01-31T22:13:07.910Z,94137.08
2019-01-31T22:15:37.644Z,94139.91
2019-01-31T22:18:07.670Z,94148.67
2019-01-31T22:20:37.161Z,94147.20
2019-01-31T22:23:06.683Z,94161.42
2019-01-31T22:25:36.201Z,94155.80
2019-01-31T22:28:05.981Z,94155.63
2019-01-31T22:30:37.306Z,94159.87
2019-01-31T22:33:08.392Z,94161.63
2019-01-31T22:35:37.891Z,94165.31
2019-01-31T22:38:07.773Z,94160.58
2019-01-31T22:40:37.391Z,94166.58
2019-01-31T22:43:07.295Z,94167.22
2019-01-31T22:45:36.577Z,94165.19
2019-01-31T22:48:07.484Z,94164.52
2019-01-31T22:50:37.140Z,94168.34
2019-01-31T22:53:07.072Z,94174.23
2019-01-31T22:55:36.696Z,94179.08
2019-01-31T22:58:07.033Z,94179.37
2019-01-31T23:01:14.941Z,94181.47
2019-01-31T23:03:44.473Z,94187.17
2019-01-31T23:06:17.050Z,94197.52
2019-01-31T23:08:46.537Z,94189.94
2019-01-31T23:11:16.098Z,94190.47
2019-01-31T23:13:45.587Z,94193.94
2019-01-31T23:16:15.066Z,94192.19
2019-01-31T23:18:44.550Z,94192.23
2019-01-31T23:21:14.031Z,94197.67
2019-01-31T23:23:43.527Z,94195.14
2019-01-31T23:26:13.025Z,94204.36
2019-01-31T23:28:42.497Z,94201.30
2019-01-31T23:31:11.965Z,94200.48
2019-01-31T23:33:41.549Z,94196.92
2019-01-31T23:36:11.038Z,94201.17
2019-01-31T23:38:40.538Z,94202.74
2019-01-31T23:41:09.985Z,94210.14
2019-01-31T23:43:39.456Z,94209.16
2019-01-31T23:46:09.057Z,94206.69
2019-01-31T23:48:38.520Z,94210.77
2019-01-31T23:51:08.146Z,94214.95
2019-01-31T23:53:37.631Z,94218.80
2019-01-31T23:56:07.133Z,94219.12
2019-01-31T23:58:36.596Z,94228.91
